Time;durP1;ratioP1;P1;durP2;ratioP2;P2;SDS_P1;SDS_P2;PMS_P1;PMS_P2;Temp;Humidity;BMP_temperature;BMP_pressure;BME280_temperature;BME280_humidity;BME280_pressure;Samples;Min_cycle;Max_cycle;Signal;HPM_P1;HPM_P2
2022/01/20 00:01:44;;;;;;;38.53;6.50;;;;;;;;;;5075993;28;20555;-68
2022/01/20 00:04:21;;;;;;;29.50;6.67;;;;;;;;;;5093601;28;20154;-68
2022/01/20 00:26:24;;;;;;;36.67;6.87;;;;;;;;;;5097708;28;20221;-68
2022/01/20 00:28:55;;;;;;;36.50;6.67;;;;;;;;;;5097596;28;20199;-68
2022/01/20 00:33:55;;;;;;;40.50;7.70;;;;;;;;;;5097628;28;20173;-68
2022/01/20 00:39:06;;;;;;;39.57;6.33;;;;;;;;;;5097345;28;20598;-65
2022/01/20 00:41:32;;;;;;;38.73;6.50;;;;;;;;;;5078659;28;20415;-67
2022/01/20 00:43:58;;;;;;;41.43;7.30;;;;;;;;;;5097291;28;20181;-68
2022/01/20 00:46:24;;;;;;;41.97;6.37;;;;;;;;;;5096995;28;20546;-68
2022/01/20 00:48:50;;;;;;;31.90;6.60;;;;;;;;;;5096825;28;20569;-68
2022/01/20 00:51:16;;;;;;;45.53;6.60;;;;;;;;;;5078647;28;20185;-68
2022/01/20 00:53:43;;;;;;;31.50;6.20;;;;;;;;;;5096815;28;20173;-68
2022/01/20 00:56:10;;;;;;;34.03;6.67;;;;;;;;;;5096657;28;20189;-67
2022/01/20 00:58:36;;;;;;;34.47;5.83;;;;;;;;;;5078211;28;20276;-67
2022/01/20 01:01:02;;;;;;;32.80;7.43;;;;;;;;;;5078659;28;20209;-67
2022/01/20 01:03:28;;;;;;;32.20;5.90;;;;;;;;;;5078245;28;20234;-67
2022/01/20 01:06:18;;;;;;;35.03;6.67;;;;;;;;;;5096922;28;20283;-67
2022/01/20 01:08:44;;;;;;;38.37;6.67;;;;;;;;;;5096389;28;20653;-67
2022/01/20 01:11:10;;;;;;;39.30;6.57;;;;;;;;;;5096860;28;20410;-67
2022/01/20 01:13:37;;;;;;;33.33;5.83;;;;;;;;;;5096821;28;20201;-67
2022/01/20 01:16:04;;;;;;;36.87;6.77;;;;;;;;;;5096382;28;20215;-67
2022/01/20 01:21:43;;;;;;;37.93;5.70;;;;;;;;;;5096256;28;20652;-67
2022/01/20 01:24:09;;;;;;;39.20;6.57;;;;;;;;;;5078062;28;20441;-67
2022/01/20 01:26:35;;;;;;;39.33;6.23;;;;;;;;;;5077816;28;20201;-67
2022/01/20 01:29:05;;;;;;;37.23;7.03;;;;;;;;;;5096113;28;20280;-68
2022/01/20 01:31:35;;;;;;;35.23;6.03;;;;;;;;;;5078439;28;20177;-68
2022/01/20 01:34:13;;;;;;;31.10;6.30;;;;;;;;;;5085676;28;20177;-67
2022/01/20 01:37:03;;;;;;;29.80;5.80;;;;;;;;;;5091772;28;20188;-67
2022/01/20 01:39:29;;;;;;;36.97;9.33;;;;;;;;;;5079488;28;20938;-68
2022/01/20 01:41:57;;;;;;;31.50;6.60;;;;;;;;;;5078513;28;20213;-67
2022/01/20 01:44:27;;;;;;;34.03;5.23;;;;;;;;;;5096202;28;20598;-67
2022/01/20 01:46:53;;;;;;;34.67;6.40;;;;;;;;;;5096446;28;20197;-67
2022/01/20 01:49:20;;;;;;;29.93;5.80;;;;;;;;;;5096087;28;20252;-67
2022/01/20 01:51:46;;;;;;;41.60;6.20;;;;;;;;;;5096202;28;20553;-67
2022/01/20 01:54:13;;;;;;;31.23;6.30;;;;;;;;;;5095493;28;20169;-67
2022/01/20 01:56:40;;;;;;;25.10;6.07;;;;;;;;;;5095599;28;20196;-67
2022/01/20 01:59:06;;;;;;;39.43;6.53;;;;;;;;;;5078398;28;20185;-67
2022/01/20 02:01:35;;;;;;;27.03;4.73;;;;;;;;;;5077453;28;20173;-67
2022/01/20 02:04:12;;;;;;;25.30;5.10;;;;;;;;;;5077562;28;20185;-67
2022/01/20 02:07:13;;;;;;;26.83;4.80;;;;;;;;;;5096052;28;20525;-67
2022/01/20 02:20:24;;;;;;;25.67;4.90;;;;;;;;;;5095886;28;20183;-67
2022/01/20 02:22:51;;;;;;;38.97;5.97;;;;;;;;;;5095835;28;20181;-67
2022/01/20 02:25:24;;;;;;;33.23;5.97;;;;;;;;;;5095349;28;20259;-67
2022/01/20 02:27:51;;;;;;;28.00;4.70;;;;;;;;;;5077046;28;20540;-67
2022/01/20 02:30:17;;;;;;;25.33;4.60;;;;;;;;;;5076812;28;20463;-67
2022/01/20 02:32:51;;;;;;;25.00;4.57;;;;;;;;;;5076047;28;20416;-67
2022/01/20 02:35:17;;;;;;;23.27;4.03;;;;;;;;;;5095446;28;20165;-67
2022/01/20 02:37:46;;;;;;;19.17;4.47;;;;;;;;;;5094894;28;20238;-67
2022/01/20 02:45:35;;;;;;;23.07;4.10;;;;;;;;;;5063452;28;20207;-67
2022/01/20 02:48:00;;;;;;;27.10;5.87;;;;;;;;;;5094699;28;20533;-67
2022/01/20 02:50:26;;;;;;;18.13;4.23;;;;;;;;;;5094534;28;20200;-67
2022/01/20 02:52:52;;;;;;;22.07;4.63;;;;;;;;;;5094695;28;20173;-67
2022/01/20 02:55:18;;;;;;;23.03;5.70;;;;;;;;;;5094485;28;20193;-67
2022/01/20 02:57:44;;;;;;;22.20;6.10;;;;;;;;;;5094489;28;20227;-67
2022/01/20 03:00:10;;;;;;;21.73;4.73;;;;;;;;;;5094797;28;20679;-67
2022/01/20 03:02:38;;;;;;;19.13;4.10;;;;;;;;;;5094685;28;20184;-67
2022/01/20 03:05:04;;;;;;;16.70;4.03;;;;;;;;;;5094503;28;20554;-67
2022/01/20 03:07:30;;;;;;;21.37;4.60;;;;;;;;;;5094426;28;20938;-67
2022/01/20 03:09:56;;;;;;;18.73;4.63;;;;;;;;;;5093975;28;20417;-67
2022/01/20 03:12:22;;;;;;;16.37;3.67;;;;;;;;;;5075966;28;20180;-67
2022/01/20 03:14:48;;;;;;;15.97;3.63;;;;;;;;;;5094208;28;20177;-67
2022/01/20 03:17:14;;;;;;;22.03;4.73;;;;;;;;;;5094170;28;20189;-67
2022/01/20 03:19:40;;;;;;;20.37;4.33;;;;;;;;;;5075999;28;20253;-67
2022/01/20 03:22:07;;;;;;;18.70;3.37;;;;;;;;;;5093921;28;20645;-67
2022/01/20 03:24:33;;;;;;;20.10;3.90;;;;;;;;;;5094207;28;20637;-67
2022/01/20 03:26:58;;;;;;;22.20;4.63;;;;;;;;;;5094187;28;20204;-67
2022/01/20 03:29:24;;;;;;;22.97;3.73;;;;;;;;;;5093862;28;20200;-67
2022/01/20 03:31:50;;;;;;;16.10;4.17;;;;;;;;;;5094142;28;20698;-68
2022/01/20 03:34:16;;;;;;;20.77;4.63;;;;;;;;;;5094000;28;20206;-67
2022/01/20 03:36:42;;;;;;;15.40;3.17;;;;;;;;;;5075773;28;20197;-67
2022/01/20 03:39:08;;;;;;;16.50;3.67;;;;;;;;;;5094247;28;20226;-68
2022/01/20 03:41:34;;;;;;;17.00;3.50;;;;;;;;;;5094212;28;20177;-67
2022/01/20 03:44:00;;;;;;;12.87;3.60;;;;;;;;;;5075469;28;20271;-68
2022/01/20 03:46:26;;;;;;;21.13;4.50;;;;;;;;;;5094009;28;20205;-67
2022/01/20 03:48:55;;;;;;;21.10;3.50;;;;;;;;;;5093645;28;20205;-67
2022/01/20 03:51:25;;;;;;;19.77;4.03;;;;;;;;;;5075600;28;20184;-67
2022/01/20 03:53:52;;;;;;;19.37;3.70;;;;;;;;;;5067633;22;20493;-59
2022/01/20 03:56:19;;;;;;;15.37;3.33;;;;;;;;;;5032799;28;20418;-61
2022/01/20 03:58:45;;;;;;;14.77;3.60;;;;;;;;;;5034494;28;20176;-60
2022/01/20 04:01:12;;;;;;;15.50;3.47;;;;;;;;;;5033240;28;20191;-59
2022/01/20 04:03:38;;;;;;;10.73;3.07;;;;;;;;;;5035241;28;20449;-61
2022/01/20 04:06:04;;;;;;;14.57;4.47;;;;;;;;;;5033855;28;20414;-59
2022/01/20 04:08:35;;;;;;;11.77;3.03;;;;;;;;;;5032642;28;20210;-59
2022/01/20 04:11:03;;;;;;;19.23;3.20;;;;;;;;;;5033174;28;20225;-61
2022/01/20 04:13:31;;;;;;;16.60;3.50;;;;;;;;;;5037075;28;20221;-61
2022/01/20 04:16:00;;;;;;;12.27;3.83;;;;;;;;;;5035746;28;20418;-61
2022/01/20 04:18:27;;;;;;;13.77;3.03;;;;;;;;;;5034990;28;20410;-60
2022/01/20 04:20:53;;;;;;;13.33;2.77;;;;;;;;;;5035572;28;20969;-59
2022/01/20 04:23:19;;;;;;;11.27;2.53;;;;;;;;;;5042429;28;20464;-61
2022/01/20 04:25:45;;;;;;;10.10;2.87;;;;;;;;;;5048607;28;20482;-60
2022/01/20 04:28:11;;;;;;;10.10;3.03;;;;;;;;;;5045427;28;20222;-59
2022/01/20 04:30:37;;;;;;;7.00;2.57;;;;;;;;;;5036838;28;20262;-61
2022/01/20 04:33:03;;;;;;;10.80;3.00;;;;;;;;;;5035463;28;20199;-60
2022/01/20 04:35:29;;;;;;;14.77;2.73;;;;;;;;;;5036006;28;20406;-60
2022/01/20 04:37:57;;;;;;;12.57;3.13;;;;;;;;;;5035956;28;20175;-62
2022/01/20 04:40:23;;;;;;;10.60;2.87;;;;;;;;;;5035761;28;20203;-62
2022/01/20 04:42:50;;;;;;;11.67;2.80;;;;;;;;;;5046115;28;20199;-62
2022/01/20 04:45:24;;;;;;;14.10;2.63;;;;;;;;;;5052686;28;20179;-62
2022/01/20 04:58:50;;;;;;;18.77;3.30;;;;;;;;;;5042114;28;20448;-62
2022/01/20 05:01:15;;;;;;;13.63;2.93;;;;;;;;;;5040256;28;20171;-61
2022/01/20 05:03:43;;;;;;;15.80;3.53;;;;;;;;;;5041677;28;20254;-62
2022/01/20 05:06:09;;;;;;;19.57;3.63;;;;;;;;;;5037126;28;20178;-61
2022/01/20 05:08:35;;;;;;;19.17;3.13;;;;;;;;;;5038225;28;20747;-62
2022/01/20 05:11:03;;;;;;;19.83;3.77;;;;;;;;;;5037689;28;20172;-60
2022/01/20 05:13:35;;;;;;;16.40;2.93;;;;;;;;;;5036237;28;20286;-63
2022/01/20 05:16:01;;;;;;;18.13;4.00;;;;;;;;;;5035783;28;20176;-62
2022/01/20 05:18:27;;;;;;;17.90;4.70;;;;;;;;;;5035835;28;20698;-59
2022/01/20 05:20:53;;;;;;;11.53;2.70;;;;;;;;;;5035544;28;20187;-60
2022/01/20 05:23:19;;;;;;;14.00;3.20;;;;;;;;;;5034870;28;20663;-62
2022/01/20 05:25:45;;;;;;;17.30;3.73;;;;;;;;;;5035104;28;20187;-62
2022/01/20 05:28:11;;;;;;;18.47;4.57;;;;;;;;;;5034709;28;20183;-62
2022/01/20 05:30:40;;;;;;;9.77;3.90;;;;;;;;;;5036232;28;20321;-62
2022/01/20 05:33:05;;;;;;;11.40;3.70;;;;;;;;;;5035363;28;20294;-63
2022/01/20 05:35:31;;;;;;;12.80;2.97;;;;;;;;;;5036566;28;20207;-62
2022/01/20 05:37:58;;;;;;;13.90;3.50;;;;;;;;;;5035991;28;20534;-62
2022/01/20 05:40:24;;;;;;;14.23;3.20;;;;;;;;;;5034788;28;20183;-62
2022/01/20 05:42:50;;;;;;;15.00;3.00;;;;;;;;;;5036114;28;20438;-62
2022/01/20 05:45:16;;;;;;;14.00;3.43;;;;;;;;;;5036383;28;20186;-62
2022/01/20 05:47:45;;;;;;;13.03;3.00;;;;;;;;;;5035933;28;20179;-62
2022/01/20 05:50:16;;;;;;;18.57;3.50;;;;;;;;;;5034646;28;20561;-62
2022/01/20 05:52:42;;;;;;;11.77;3.30;;;;;;;;;;5035929;28;20831;-61
2022/01/20 05:55:09;;;;;;;12.27;2.80;;;;;;;;;;5035516;28;20937;-62
2022/01/20 05:57:36;;;;;;;14.50;3.27;;;;;;;;;;5035449;28;20410;-62
2022/01/20 06:00:03;;;;;;;16.40;3.17;;;;;;;;;;5033985;28;20433;-62
2022/01/20 06:02:35;;;;;;;12.20;2.40;;;;;;;;;;5035590;28;20179;-62
2022/01/20 06:05:01;;;;;;;15.90;3.47;;;;;;;;;;5035784;28;20394;-62
2022/01/20 06:07:27;;;;;;;12.97;3.00;;;;;;;;;;5034226;28;20980;-62
2022/01/20 06:09:53;;;;;;;10.77;3.33;;;;;;;;;;5034414;28;20222;-61
2022/01/20 06:12:19;;;;;;;14.57;3.00;;;;;;;;;;5035685;28;20406;-62
2022/01/20 06:14:45;;;;;;;16.77;3.17;;;;;;;;;;5035440;28;20199;-62
2022/01/20 06:17:11;;;;;;;10.57;2.80;;;;;;;;;;5035538;28;20182;-62
2022/01/20 06:19:37;;;;;;;9.73;2.33;;;;;;;;;;5035844;28;20183;-61
2022/01/20 06:22:03;;;;;;;11.13;2.43;;;;;;;;;;5035580;28;20237;-63
2022/01/20 06:24:29;;;;;;;12.80;3.10;;;;;;;;;;5035119;28;20217;-62
2022/01/20 06:26:55;;;;;;;14.70;2.93;;;;;;;;;;5035474;28;20258;-61
2022/01/20 06:29:22;;;;;;;10.27;2.90;;;;;;;;;;5035214;28;20203;-62
2022/01/20 06:31:48;;;;;;;14.30;2.47;;;;;;;;;;5034890;28;20199;-61
2022/01/20 06:34:14;;;;;;;16.53;3.27;;;;;;;;;;5033657;28;20678;-61
2022/01/20 06:36:40;;;;;;;10.97;3.50;;;;;;;;;;5033728;28;20313;-63
2022/01/20 06:39:06;;;;;;;18.53;3.20;;;;;;;;;;5035383;28;20183;-61
2022/01/20 06:41:37;;;;;;;12.60;3.80;;;;;;;;;;5035128;28;20183;-60
2022/01/20 06:44:03;;;;;;;16.40;3.40;;;;;;;;;;5035143;28;20199;-61
2022/01/20 06:46:29;;;;;;;11.57;3.13;;;;;;;;;;5034893;28;20977;-61
2022/01/20 06:48:55;;;;;;;12.13;2.97;;;;;;;;;;5034597;28;20294;-62
2022/01/20 06:51:21;;;;;;;8.23;2.43;;;;;;;;;;5033211;28;20215;-62
2022/01/20 06:53:47;;;;;;;18.67;3.47;;;;;;;;;;5034487;28;20210;-61
2022/01/20 06:56:12;;;;;;;11.47;3.60;;;;;;;;;;5034672;28;20227;-61
2022/01/20 06:58:38;;;;;;;19.60;4.23;;;;;;;;;;5034484;28;20230;-61
2022/01/20 07:01:04;;;;;;;14.67;3.67;;;;;;;;;;5034494;28;20189;-62
2022/01/20 07:03:30;;;;;;;18.13;3.90;;;;;;;;;;5033185;28;20353;-61
2022/01/20 07:05:56;;;;;;;17.77;4.87;;;;;;;;;;5034361;28;20554;-61
2022/01/20 07:08:22;;;;;;;21.57;5.23;;;;;;;;;;5032990;28;20538;-61
2022/01/20 07:10:48;;;;;;;20.10;5.50;;;;;;;;;;5034820;28;20184;-61
2022/01/20 07:13:14;;;;;;;13.33;3.90;;;;;;;;;;5034163;28;20784;-61
2022/01/20 07:15:40;;;;;;;24.50;6.30;;;;;;;;;;5034525;28;20219;-62
2022/01/20 07:18:06;;;;;;;25.20;5.30;;;;;;;;;;5034241;28;20184;-61
2022/01/20 07:20:32;;;;;;;22.33;6.20;;;;;;;;;;5033943;28;20321;-61
2022/01/20 07:22:58;;;;;;;15.80;4.73;;;;;;;;;;5034036;28;20203;-60
2022/01/20 07:25:24;;;;;;;21.10;5.80;;;;;;;;;;5034027;28;20418;-61
2022/01/20 07:27:50;;;;;;;17.37;5.67;;;;;;;;;;5034004;28;20179;-61
2022/01/20 07:30:16;;;;;;;18.87;5.37;;;;;;;;;;5034128;28;20210;-61
2022/01/20 07:32:42;;;;;;;15.47;4.27;;;;;;;;;;5032886;28;20194;-61
2022/01/20 07:35:08;;;;;;;21.57;4.90;;;;;;;;;;5034179;28;20258;-61
2022/01/20 07:37:35;;;;;;;20.40;4.73;;;;;;;;;;5032820;28;20203;-61
2022/01/20 07:40:01;;;;;;;16.17;4.50;;;;;;;;;;5034279;28;20631;-61
2022/01/20 07:42:27;;;;;;;19.23;6.13;;;;;;;;;;5032893;28;20186;-61
2022/01/20 07:44:53;;;;;;;23.20;5.83;;;;;;;;;;5033994;28;20203;-61
2022/01/20 07:47:19;;;;;;;22.93;6.37;;;;;;;;;;5032811;28;20190;-61
2022/01/20 07:49:45;;;;;;;20.63;5.40;;;;;;;;;;5033858;28;20202;-61
2022/01/20 07:52:12;;;;;;;16.30;4.20;;;;;;;;;;5032855;28;20194;-61
2022/01/20 07:54:38;;;;;;;16.87;4.70;;;;;;;;;;5033401;28;20222;-61
2022/01/20 07:57:05;;;;;;;17.83;4.53;;;;;;;;;;5033289;28;20279;-61
2022/01/20 07:59:31;;;;;;;21.67;5.10;;;;;;;;;;5033177;28;20187;-61
2022/01/20 08:01:57;;;;;;;11.87;4.50;;;;;;;;;;5039313;28;20414;-62
2022/01/20 08:04:23;;;;;;;17.57;4.27;;;;;;;;;;5040853;28;20199;-62
2022/01/20 08:06:49;;;;;;;12.90;4.40;;;;;;;;;;5039203;28;20186;-62
2022/01/20 08:09:15;;;;;;;12.43;4.07;;;;;;;;;;5039080;28;20203;-61
2022/01/20 08:11:41;;;;;;;18.93;4.70;;;;;;;;;;5035976;28;20222;-61
2022/01/20 08:14:07;;;;;;;18.70;5.77;;;;;;;;;;5033446;28;20442;-61
2022/01/20 08:16:33;;;;;;;17.87;4.53;;;;;;;;;;5034421;28;20423;-60
2022/01/20 08:18:59;;;;;;;16.30;3.87;;;;;;;;;;5032477;28;20179;-61
2022/01/20 08:21:25;;;;;;;16.03;3.70;;;;;;;;;;5033879;28;20186;-61
2022/01/20 08:23:51;;;;;;;14.60;3.57;;;;;;;;;;5033510;28;20239;-61
2022/01/20 08:26:17;;;;;;;13.77;4.43;;;;;;;;;;5034277;28;20233;-61
2022/01/20 08:28:43;;;;;;;17.27;4.77;;;;;;;;;;5032349;28;20293;-62
2022/01/20 08:31:09;;;;;;;15.43;4.40;;;;;;;;;;5033550;28;20282;-61
2022/01/20 08:33:35;;;;;;;9.97;4.00;;;;;;;;;;5037729;28;20626;-61
2022/01/20 08:36:01;;;;;;;12.90;4.63;;;;;;;;;;5037965;28;20265;-60
2022/01/20 08:38:27;;;;;;;18.20;4.87;;;;;;;;;;5036411;28;20614;-61
2022/01/20 08:40:53;;;;;;;14.70;3.93;;;;;;;;;;5037770;28;20182;-61
2022/01/20 08:43:19;;;;;;;12.67;3.60;;;;;;;;;;5037396;28;20278;-61
2022/01/20 08:45:47;;;;;;;15.40;5.50;;;;;;;;;;5037511;28;20184;-61
2022/01/20 08:48:13;;;;;;;13.23;5.33;;;;;;;;;;5037816;28;20226;-61
2022/01/20 08:50:40;;;;;;;14.57;5.03;;;;;;;;;;5037250;28;20276;-61
2022/01/20 08:53:06;;;;;;;13.63;3.87;;;;;;;;;;5037024;28;20222;-61
2022/01/20 08:55:33;;;;;;;9.67;3.10;;;;;;;;;;5039672;28;20215;-61
2022/01/20 08:57:59;;;;;;;12.37;3.10;;;;;;;;;;5038857;28;20179;-60
2022/01/20 09:00:26;;;;;;;12.83;3.57;;;;;;;;;;5037462;28;20183;-61
2022/01/20 09:02:52;;;;;;;13.73;3.27;;;;;;;;;;5036949;28;20265;-61
2022/01/20 09:05:18;;;;;;;13.80;2.80;;;;;;;;;;5036733;28;20666;-60
2022/01/20 09:07:46;;;;;;;10.47;3.10;;;;;;;;;;5036620;28;20547;-61
2022/01/20 09:10:19;;;;;;;11.33;4.07;;;;;;;;;;5035330;28;20229;-61
2022/01/20 09:15:27;;;;;;;12.00;3.20;;;;;;;;;;5037348;28;20218;-61
2022/01/20 09:17:54;;;;;;;8.87;2.83;;;;;;;;;;5036669;28;20166;-60
2022/01/20 09:20:20;;;;;;;6.63;2.50;;;;;;;;;;5036525;28;20576;-61
2022/01/20 09:22:48;;;;;;;11.67;3.80;;;;;;;;;;5036558;28;20229;-60
2022/01/20 09:25:14;;;;;;;12.00;3.03;;;;;;;;;;5036566;28;20186;-61
2022/01/20 09:27:40;;;;;;;13.60;3.70;;;;;;;;;;5036219;28;20179;-61
2022/01/20 09:30:06;;;;;;;12.80;3.00;;;;;;;;;;5036936;28;20691;-61
2022/01/20 09:32:37;;;;;;;11.17;3.93;;;;;;;;;;5034872;28;20251;-60
2022/01/20 09:35:03;;;;;;;7.47;2.63;;;;;;;;;;5034886;28;20602;-60
2022/01/20 09:37:29;;;;;;;10.70;3.20;;;;;;;;;;5035999;28;20179;-61
2022/01/20 09:39:56;;;;;;;9.23;3.20;;;;;;;;;;5036085;28;20182;-61
2022/01/20 09:42:23;;;;;;;8.50;3.37;;;;;;;;;;5034441;28;20216;-62
2022/01/20 09:44:49;;;;;;;12.87;4.40;;;;;;;;;;5035990;28;20199;-61
2022/01/20 09:47:19;;;;;;;12.43;3.50;;;;;;;;;;5035505;28;20189;-61
2022/01/20 09:49:44;;;;;;;15.03;4.13;;;;;;;;;;5036729;28;20461;-61
2022/01/20 09:52:11;;;;;;;13.57;3.27;;;;;;;;;;5035027;28;20270;-60
2022/01/20 09:54:37;;;;;;;10.93;3.00;;;;;;;;;;5059349;22;20219;-64
2022/01/20 09:57:04;;;;;;;6.73;2.70;;;;;;;;;;5020981;28;20267;-68
2022/01/20 09:59:31;;;;;;;13.00;2.90;;;;;;;;;;5020667;28;20184;-64
2022/01/20 10:01:58;;;;;;;11.63;3.50;;;;;;;;;;5022001;28;20178;-63
2022/01/20 10:04:29;;;;;;;8.47;3.00;;;;;;;;;;5021964;28;20644;-63
2022/01/20 10:06:57;;;;;;;7.23;2.43;;;;;;;;;;5021735;28;20222;-65
2022/01/20 10:09:26;;;;;;;10.00;2.80;;;;;;;;;;5021504;28;20203;-67
2022/01/20 10:11:52;;;;;;;9.13;3.20;;;;;;;;;;5021176;28;20648;-64
2022/01/20 10:14:18;;;;;;;8.83;2.47;;;;;;;;;;5021280;28;20196;-63
2022/01/20 10:16:44;;;;;;;8.37;2.47;;;;;;;;;;5021606;28;20220;-66
2022/01/20 10:19:10;;;;;;;14.60;2.93;;;;;;;;;;5021326;28;20184;-64
2022/01/20 10:21:37;;;;;;;10.17;3.20;;;;;;;;;;5019573;28;20191;-64
2022/01/20 10:24:05;;;;;;;11.43;3.70;;;;;;;;;;5020506;28;20230;-64
2022/01/20 10:26:31;;;;;;;10.83;3.73;;;;;;;;;;5021176;28;20210;-68
2022/01/20 10:29:03;;;;;;;6.63;2.80;;;;;;;;;;5020442;28;20203;-65
2022/01/20 10:31:39;;;;;;;10.57;3.00;;;;;;;;;;5021548;28;20168;-64
2022/01/20 10:34:07;;;;;;;12.47;3.20;;;;;;;;;;5019863;28;20230;-65
2022/01/20 10:36:38;;;;;;;10.40;3.20;;;;;;;;;;5019661;28;20531;-64
2022/01/20 10:39:04;;;;;;;9.77;2.73;;;;;;;;;;5019500;28;20200;-64
2022/01/20 10:41:36;;;;;;;10.77;2.67;;;;;;;;;;5019691;28;20327;-65
2022/01/20 10:44:04;;;;;;;8.10;3.00;;;;;;;;;;5018327;28;20204;-64
2022/01/20 10:46:41;;;;;;;13.00;3.13;;;;;;;;;;5020418;28;20195;-68
2022/01/20 10:49:07;;;;;;;12.27;2.93;;;;;;;;;;5018980;28;20199;-62
2022/01/20 10:51:33;;;;;;;13.13;3.30;;;;;;;;;;5020854;28;20183;-63
2022/01/20 10:54:04;;;;;;;8.83;2.30;;;;;;;;;;5018353;28;20680;-63
2022/01/20 10:56:30;;;;;;;8.37;2.27;;;;;;;;;;5020420;28;20235;-63
2022/01/20 10:59:06;;;;;;;14.43;3.47;;;;;;;;;;5020383;28;20263;-64
2022/01/20 11:01:32;;;;;;;12.73;3.30;;;;;;;;;;5017538;28;20176;-64
2022/01/20 11:03:58;;;;;;;11.90;3.17;;;;;;;;;;5020239;28;20199;-64
2022/01/20 11:06:24;;;;;;;8.27;2.77;;;;;;;;;;5019888;28;20645;-63
2022/01/20 11:08:51;;;;;;;12.23;3.13;;;;;;;;;;5019870;28;20226;-62
2022/01/20 11:11:18;;;;;;;14.60;3.47;;;;;;;;;;5020402;28;20172;-64
2022/01/20 11:13:44;;;;;;;9.70;3.63;;;;;;;;;;5019593;28;20543;-65
2022/01/20 11:16:10;;;;;;;11.37;2.77;;;;;;;;;;5017352;28;20183;-64
2022/01/20 11:18:37;;;;;;;9.80;2.80;;;;;;;;;;5018962;28;20180;-64
2022/01/20 11:21:05;;;;;;;7.73;2.57;;;;;;;;;;5019919;28;20179;-70
2022/01/20 11:23:43;;;;;;;11.40;3.10;;;;;;;;;;5018488;28;20183;-64
2022/01/20 11:26:09;;;;;;;8.47;2.10;;;;;;;;;;5019461;28;20172;-63
2022/01/20 11:28:35;;;;;;;10.37;3.20;;;;;;;;;;5018916;28;20187;-63
2022/01/20 11:31:06;;;;;;;11.30;3.10;;;;;;;;;;5019315;28;20180;-64
2022/01/20 11:33:42;;;;;;;7.87;2.47;;;;;;;;;;5018810;28;20691;-64
2022/01/20 11:36:10;;;;;;;8.20;2.50;;;;;;;;;;5019638;28;20164;-63
2022/01/20 11:38:36;;;;;;;12.13;3.50;;;;;;;;;;5019166;28;20172;-64
2022/01/20 11:41:03;;;;;;;10.63;3.13;;;;;;;;;;5019515;28;20202;-65
2022/01/20 11:43:36;;;;;;;8.60;2.60;;;;;;;;;;5019392;28;20176;-62
2022/01/20 11:46:11;;;;;;;11.27;2.87;;;;;;;;;;5018065;28;20184;-64
2022/01/20 11:48:48;;;;;;;10.73;2.93;;;;;;;;;;5018704;28;20163;-65
2022/01/20 11:51:17;;;;;;;12.93;3.40;;;;;;;;;;5016912;28;20189;-64
2022/01/20 11:53:54;;;;;;;9.20;3.23;;;;;;;;;;5018142;28;20187;-64
2022/01/20 11:56:27;;;;;;;5.97;2.67;;;;;;;;;;5018177;28;20168;-63
2022/01/20 11:58:53;;;;;;;9.87;2.90;;;;;;;;;;5017999;28;20176;-63
2022/01/20 12:01:19;;;;;;;6.73;2.83;;;;;;;;;;5016851;28;20180;-63
2022/01/20 12:03:52;;;;;;;10.23;3.07;;;;;;;;;;5017376;28;20183;-62
2022/01/20 12:06:24;;;;;;;5.47;2.43;;;;;;;;;;5021533;28;20182;-64
2022/01/20 12:08:57;;;;;;;12.17;3.37;;;;;;;;;;5022576;28;20199;-62
2022/01/20 12:11:33;;;;;;;6.40;2.63;;;;;;;;;;5022529;28;20172;-63
2022/01/20 12:13:59;;;;;;;15.43;2.83;;;;;;;;;;5022171;28;20199;-64
2022/01/20 12:16:25;;;;;;;15.77;3.60;;;;;;;;;;5020706;28;20176;-65
2022/01/20 12:18:51;;;;;;;11.03;2.80;;;;;;;;;;5022777;28;20180;-63
2022/01/20 12:21:18;;;;;;;13.03;3.20;;;;;;;;;;5021585;28;20548;-66
2022/01/20 12:23:45;;;;;;;9.63;3.60;;;;;;;;;;5020957;28;20183;-64
2022/01/20 12:26:11;;;;;;;11.67;2.70;;;;;;;;;;5022842;28;20186;-64
2022/01/20 12:28:37;;;;;;;14.17;3.47;;;;;;;;;;5022061;28;20178;-65
2022/01/20 12:31:03;;;;;;;12.53;3.63;;;;;;;;;;5021557;28;20176;-64
2022/01/20 12:33:35;;;;;;;12.93;3.30;;;;;;;;;;5022386;28;20247;-68
2022/01/20 12:36:03;;;;;;;12.67;3.47;;;;;;;;;;5023195;28;20240;-68
2022/01/20 12:38:30;;;;;;;8.97;3.23;;;;;;;;;;5021993;28;20172;-64
2022/01/20 12:41:02;;;;;;;16.57;3.40;;;;;;;;;;5022838;28;20644;-63
2022/01/20 12:43:45;;;;;;;10.40;3.87;;;;;;;;;;5025664;28;20183;-62
2022/01/20 12:46:13;;;;;;;9.60;1.90;;;;;;;;;;5024547;28;20207;-65
2022/01/20 12:48:40;;;;;;;10.60;3.90;;;;;;;;;;5023090;28;20183;-65
2022/01/20 12:51:07;;;;;;;5.87;2.10;;;;;;;;;;5022238;28;20184;-66
2022/01/20 12:53:54;;;;;;;4.50;2.43;;;;;;;;;;5022603;28;20425;-66
2022/01/20 12:56:28;;;;;;;9.80;3.23;;;;;;;;;;5023458;28;20486;-66
2022/01/20 12:58:54;;;;;;;4.57;1.70;;;;;;;;;;5022967;28;20395;-66
2022/01/20 13:01:20;;;;;;;5.13;1.80;;;;;;;;;;5022264;28;20411;-65
2022/01/20 13:03:47;;;;;;;5.27;1.87;;;;;;;;;;5022097;28;20584;-65
2022/01/20 13:06:25;;;;;;;6.80;1.97;;;;;;;;;;5024069;28;20414;-65
2022/01/20 13:08:59;;;;;;;6.00;1.53;;;;;;;;;;5025973;28;20541;-68
2022/01/20 13:11:29;;;;;;;6.43;2.10;;;;;;;;;;5028533;28;20418;-64
2022/01/20 13:13:57;;;;;;;5.13;1.90;;;;;;;;;;5027598;28;20522;-65
2022/01/20 13:16:23;;;;;;;10.00;2.60;;;;;;;;;;5026844;28;20895;-67
2022/01/20 13:18:56;;;;;;;8.57;3.03;;;;;;;;;;5026519;28;20418;-69
2022/01/20 13:21:33;;;;;;;9.13;4.37;;;;;;;;;;5027722;28;20184;-64
2022/01/20 13:23:59;;;;;;;8.63;3.50;;;;;;;;;;5027673;28;20427;-65
2022/01/20 13:26:26;;;;;;;10.27;3.00;;;;;;;;;;5027392;28;20425;-63
2022/01/20 13:29:03;;;;;;;7.03;2.80;;;;;;;;;;5025282;28;20215;-65
2022/01/20 13:31:29;;;;;;;4.53;2.10;;;;;;;;;;5025260;28;20186;-64
2022/01/20 13:33:58;;;;;;;10.53;2.17;;;;;;;;;;5025783;28;20442;-64
2022/01/20 13:36:24;;;;;;;4.17;2.40;;;;;;;;;;5024864;28;20441;-63
2022/01/20 13:38:57;;;;;;;14.40;2.80;;;;;;;;;;5024515;28;20896;-66
2022/01/20 13:41:28;;;;;;;7.90;2.37;;;;;;;;;;5023077;28;20439;-63
2022/01/20 13:46:40;;;;;;;6.43;2.20;;;;;;;;;;5026606;28;20394;-65
2022/01/20 13:49:17;;;;;;;9.70;2.27;;;;;;;;;;5024497;28;20462;-64
2022/01/20 13:51:44;;;;;;;12.23;2.77;;;;;;;;;;5024165;28;20178;-66
2022/01/20 13:54:10;;;;;;;9.03;2.80;;;;;;;;;;5024834;28;20741;-64
2022/01/20 13:56:36;;;;;;;8.93;2.33;;;;;;;;;;5025255;28;20186;-63
2022/01/20 13:59:06;;;;;;;8.37;2.20;;;;;;;;;;5022871;28;20183;-64
2022/01/20 14:01:32;;;;;;;6.70;2.23;;;;;;;;;;5025153;28;20175;-63
2022/01/20 14:03:59;;;;;;;12.63;2.87;;;;;;;;;;5023587;28;20435;-64
2022/01/20 14:06:25;;;;;;;6.10;2.27;;;;;;;;;;5023720;28;20555;-63
2022/01/20 14:08:52;;;;;;;9.83;2.73;;;;;;;;;;5022211;28;20231;-68
2022/01/20 14:11:18;;;;;;;7.73;2.50;;;;;;;;;;5023506;28;20199;-69
2022/01/20 14:13:44;;;;;;;9.33;3.00;;;;;;;;;;5023120;28;20180;-65
2022/01/20 14:16:10;;;;;;;8.60;3.00;;;;;;;;;;5021972;28;20214;-64
2022/01/20 14:18:43;;;;;;;9.73;2.90;;;;;;;;;;5023569;28;20636;-64
2022/01/20 14:21:09;;;;;;;10.03;3.00;;;;;;;;;;5022500;28;20163;-64
2022/01/20 14:23:35;;;;;;;8.93;3.03;;;;;;;;;;5022673;28;20176;-63
2022/01/20 14:26:02;;;;;;;10.27;3.07;;;;;;;;;;5022782;28;20172;-68
2022/01/20 14:28:28;;;;;;;12.03;3.27;;;;;;;;;;5022148;28;20178;-65
2022/01/20 14:30:54;;;;;;;8.70;2.60;;;;;;;;;;5022052;28;20199;-66
2022/01/20 14:33:20;;;;;;;11.83;2.80;;;;;;;;;;5021670;28;20187;-65
2022/01/20 14:35:46;;;;;;;10.97;3.17;;;;;;;;;;5021671;28;20574;-65
2022/01/20 14:38:12;;;;;;;6.83;2.33;;;;;;;;;;5022665;28;20965;-63
2022/01/20 14:40:38;;;;;;;8.87;2.30;;;;;;;;;;5023705;28;20419;-69
2022/01/20 14:43:04;;;;;;;7.40;2.20;;;;;;;;;;5021516;28;20330;-64
2022/01/20 14:45:30;;;;;;;12.37;2.50;;;;;;;;;;5023298;28;20265;-65
2022/01/20 14:47:56;;;;;;;8.57;2.37;;;;;;;;;;5022252;28;20179;-64
2022/01/20 14:50:23;;;;;;;10.23;3.30;;;;;;;;;;5022842;28;20200;-63
2022/01/20 14:52:50;;;;;;;7.07;2.53;;;;;;;;;;5022368;28;20625;-65
2022/01/20 14:55:16;;;;;;;14.93;3.17;;;;;;;;;;5022546;28;20676;-64
2022/01/20 14:57:42;;;;;;;9.90;3.37;;;;;;;;;;5020777;28;20184;-66
2022/01/20 15:00:09;;;;;;;7.00;2.20;;;;;;;;;;5022751;28;20230;-64
2022/01/20 15:02:35;;;;;;;8.10;1.87;;;;;;;;;;5022483;28;20414;-64
2022/01/20 15:05:02;;;;;;;7.60;2.27;;;;;;;;;;5022535;28;20230;-64
2022/01/20 15:07:28;;;;;;;6.97;2.60;;;;;;;;;;5022079;28;20175;-65
2022/01/20 15:09:54;;;;;;;8.10;2.20;;;;;;;;;;5022755;28;20576;-64
2022/01/20 15:12:20;;;;;;;10.77;2.13;;;;;;;;;;5022604;28;20600;-64
2022/01/20 15:14:47;;;;;;;7.83;3.07;;;;;;;;;;5020608;28;20207;-64
2022/01/20 15:17:13;;;;;;;7.00;2.10;;;;;;;;;;5021290;28;20415;-63
2022/01/20 15:19:39;;;;;;;6.20;2.10;;;;;;;;;;5021107;28;20190;-63
2022/01/20 15:22:05;;;;;;;7.50;2.47;;;;;;;;;;5022530;28;20180;-63
2022/01/20 15:24:32;;;;;;;11.07;2.77;;;;;;;;;;5020764;28;20227;-65
2022/01/20 15:26:59;;;;;;;9.53;2.30;;;;;;;;;;5020540;28;20179;-63
2022/01/20 15:29:26;;;;;;;9.73;2.80;;;;;;;;;;5021022;28;20204;-64
2022/01/20 15:31:52;;;;;;;7.83;2.43;;;;;;;;;;5021356;28;20176;-63
2022/01/20 15:34:18;;;;;;;6.27;2.50;;;;;;;;;;5021726;28;20198;-65
2022/01/20 15:36:48;;;;;;;8.53;2.97;;;;;;;;;;5022207;28;20551;-64